sensor_id;sensor_type;location;lat;lon;timestamp;pressure;altitude;pressure_sealevel;temperature;humidity
63901;BME280;50538;53.482;10.294;2022-07-29T00:00:33;101594.25;;;14.31;66.63
63901;BME280;50538;53.482;10.294;2022-07-29T00:10:34;101585.91;;;14.18;66.78
63901;BME280;50538;53.482;10.294;2022-07-29T00:20:34;101579.22;;;14.06;67.19
63901;BME280;50538;53.482;10.294;2022-07-29T00:30:34;101567.25;;;13.94;68.00
63901;BME280;50538;53.482;10.294;2022-07-29T00:40:35;101560.19;;;13.84;67.72
63901;BME280;50538;53.482;10.294;2022-07-29T00:50:36;101554.19;;;13.74;67.93
63901;BME280;50538;53.482;10.294;2022-07-29T01:00:37;101553.69;;;13.71;68.31
63901;BME280;50538;53.482;10.294;2022-07-29T01:10:39;101559.69;;;13.65;68.04
63901;BME280;50538;53.482;10.294;2022-07-29T01:30:56;101535.16;;;13.53;69.18
63901;BME280;50538;53.482;10.294;2022-07-29T01:41:07;101526.97;;;13.46;69.21
63901;BME280;50538;53.482;10.294;2022-07-29T01:51:29;101518.47;;;13.43;71.12
63901;BME280;50538;53.482;10.294;2022-07-29T02:01:33;101513.66;;;13.38;71.46
63901;BME280;50538;53.482;10.294;2022-07-29T02:11:35;101501.31;;;13.37;71.57
63901;BME280;50538;53.482;10.294;2022-07-29T02:21:37;101499.81;;;13.35;71.76
63901;BME280;50538;53.482;10.294;2022-07-29T02:31:39;101489.31;;;13.33;71.36
63901;BME280;50538;53.482;10.294;2022-07-29T02:41:50;101494.13;;;13.30;72.91
63901;BME280;50538;53.482;10.294;2022-07-29T02:51:58;101493.31;;;13.29;72.42
63901;BME280;50538;53.482;10.294;2022-07-29T03:01:59;101484.63;;;13.27;73.53
63901;BME280;50538;53.482;10.294;2022-07-29T03:12:01;101475.63;;;13.28;74.76
63901;BME280;50538;53.482;10.294;2022-07-29T03:22:02;101472.63;;;13.31;74.39
63901;BME280;50538;53.482;10.294;2022-07-29T03:32:04;101461.81;;;13.33;74.84
63901;BME280;50538;53.482;10.294;2022-07-29T03:42:06;101456.31;;;13.34;73.86
63901;BME280;50538;53.482;10.294;2022-07-29T03:52:08;101460.63;;;13.35;74.30
63901;BME280;50538;53.482;10.294;2022-07-29T04:02:10;101468.31;;;13.38;75.32
63901;BME280;50538;53.482;10.294;2022-07-29T04:12:11;101461.44;;;13.44;74.78
63901;BME280;50538;53.482;10.294;2022-07-29T04:22:11;101460.44;;;13.53;73.63
63901;BME280;50538;53.482;10.294;2022-07-29T04:32:15;101450.28;;;13.65;73.97
63901;BME280;50538;53.482;10.294;2022-07-29T04:42:15;101453.25;;;13.78;74.80
63901;BME280;50538;53.482;10.294;2022-07-29T04:52:15;101456.28;;;13.91;73.99
63901;BME280;50538;53.482;10.294;2022-07-29T05:02:15;101450.53;;;14.10;72.53
63901;BME280;50538;53.482;10.294;2022-07-29T05:12:16;101465.03;;;14.24;72.88
63901;BME280;50538;53.482;10.294;2022-07-29T05:22:20;101470.16;;;14.42;72.39
63901;BME280;50538;53.482;10.294;2022-07-29T05:32:20;101476.72;;;14.62;74.42
63901;BME280;50538;53.482;10.294;2022-07-29T05:42:20;101476.47;;;14.80;73.87
63901;BME280;50538;53.482;10.294;2022-07-29T05:52:21;101485.19;;;15.13;72.80
63901;BME280;50538;53.482;10.294;2022-07-29T06:02:21;101485.72;;;15.54;72.16
63901;BME280;50538;53.482;10.294;2022-07-29T06:12:22;101472.66;;;15.88;70.82
63901;BME280;50538;53.482;10.294;2022-07-29T06:22:22;101473.06;;;16.15;71.55
63901;BME280;50538;53.482;10.294;2022-07-29T06:32:22;101476.75;;;16.73;69.43
63901;BME280;50538;53.482;10.294;2022-07-29T06:42:22;101475.59;;;17.18;67.90
63901;BME280;50538;53.482;10.294;2022-07-29T06:52:23;101475.00;;;17.37;67.09
63901;BME280;50538;53.482;10.294;2022-07-29T07:02:24;101464.47;;;17.64;67.75
63901;BME280;50538;53.482;10.294;2022-07-29T07:12:25;101467.22;;;17.98;66.00
63901;BME280;50538;53.482;10.294;2022-07-29T07:22:25;101458.09;;;18.34;65.90
63901;BME280;50538;53.482;10.294;2022-07-29T07:32:25;101447.50;;;18.67;65.56
63901;BME280;50538;53.482;10.294;2022-07-29T07:42:26;101443.72;;;19.09;63.04
63901;BME280;50538;53.482;10.294;2022-07-29T07:52:26;101438.59;;;19.73;62.77
63901;BME280;50538;53.482;10.294;2022-07-29T08:02:27;101445.56;;;20.27;60.51
63901;BME280;50538;53.482;10.294;2022-07-29T08:12:27;101436.81;;;20.76;59.39
63901;BME280;50538;53.482;10.294;2022-07-29T08:22:27;101422.66;;;21.19;58.64
63901;BME280;50538;53.482;10.294;2022-07-29T08:32:28;101425.56;;;21.49;56.88
63901;BME280;50538;53.482;10.294;2022-07-29T08:42:28;101424.84;;;22.03;56.37
63901;BME280;50538;53.482;10.294;2022-07-29T08:52:33;101418.56;;;22.58;55.82
63901;BME280;50538;53.482;10.294;2022-07-29T09:02:41;101416.34;;;23.38;53.14
63901;BME280;50538;53.482;10.294;2022-07-29T09:12:42;101412.09;;;24.35;49.78
63901;BME280;50538;53.482;10.294;2022-07-29T09:22:42;101405.19;;;24.73;48.18
63901;BME280;50538;53.482;10.294;2022-07-29T09:33:00;101402.34;;;24.80;47.15
63901;BME280;50538;53.482;10.294;2022-07-29T09:43:09;101401.25;;;25.43;45.85
63901;BME280;50538;53.482;10.294;2022-07-29T09:53:11;101405.47;;;26.06;43.32
63901;BME280;50538;53.482;10.294;2022-07-29T10:03:12;101406.09;;;26.56;41.63
63901;BME280;50538;53.482;10.294;2022-07-29T10:13:14;101389.97;;;26.50;41.84
63901;BME280;50538;53.482;10.294;2022-07-29T10:23:14;101385.81;;;26.25;42.26
63901;BME280;50538;53.482;10.294;2022-07-29T10:43:36;101368.41;;;26.48;40.25
63901;BME280;50538;53.482;10.294;2022-07-29T10:53:51;101358.66;;;27.06;39.68
63901;BME280;50538;53.482;10.294;2022-07-29T11:03:53;101345.50;;;27.77;37.94
63901;BME280;50538;53.482;10.294;2022-07-29T11:13:55;101345.81;;;27.81;36.40
63901;BME280;50538;53.482;10.294;2022-07-29T11:24:11;101341.94;;;27.72;37.30
63901;BME280;50538;53.482;10.294;2022-07-29T11:34:25;101340.72;;;28.10;35.64
63901;BME280;50538;53.482;10.294;2022-07-29T11:44:55;101317.38;;;29.20;34.21
63901;BME280;50538;53.482;10.294;2022-07-29T11:55:01;101309.28;;;29.90;34.28
63901;BME280;50538;53.482;10.294;2022-07-29T12:05:02;101309.19;;;30.10;35.63
63901;BME280;50538;53.482;10.294;2022-07-29T12:15:16;101306.09;;;30.22;33.70
63901;BME280;50538;53.482;10.294;2022-07-29T12:25:17;101295.56;;;29.95;32.57
63901;BME280;50538;53.482;10.294;2022-07-29T12:35:19;101306.13;;;29.57;31.33
63901;BME280;50538;53.482;10.294;2022-07-29T12:45:28;101296.28;;;29.36;33.48
63901;BME280;50538;53.482;10.294;2022-07-29T12:55:40;101295.72;;;29.54;32.31
63901;BME280;50538;53.482;10.294;2022-07-29T13:05:43;101294.63;;;29.50;33.84
63901;BME280;50538;53.482;10.294;2022-07-29T13:15:45;101282.06;;;29.39;33.13
63901;BME280;50538;53.482;10.294;2022-07-29T13:25:49;101270.22;;;29.59;34.87
63901;BME280;50538;53.482;10.294;2022-07-29T13:35:49;101263.63;;;30.24;34.94
63901;BME280;50538;53.482;10.294;2022-07-29T13:45:49;101252.16;;;30.17;31.81
63901;BME280;50538;53.482;10.294;2022-07-29T13:55:50;101252.50;;;30.06;33.23
63901;BME280;50538;53.482;10.294;2022-07-29T14:05:51;101237.81;;;30.31;35.92
63901;BME280;50538;53.482;10.294;2022-07-29T14:15:52;101234.31;;;30.59;38.22
63901;BME280;50538;53.482;10.294;2022-07-29T14:25:56;101241.59;;;31.03;39.00
63901;BME280;50538;53.482;10.294;2022-07-29T14:35:56;101240.00;;;30.73;37.65
63901;BME280;50538;53.482;10.294;2022-07-29T14:45:57;101238.03;;;31.02;40.30
63901;BME280;50538;53.482;10.294;2022-07-29T14:55:57;101222.72;;;31.25;39.11
63901;BME280;50538;53.482;10.294;2022-07-29T15:05:57;101223.28;;;31.27;38.23
63901;BME280;50538;53.482;10.294;2022-07-29T15:15:58;101231.59;;;31.41;38.10
63901;BME280;50538;53.482;10.294;2022-07-29T15:25:58;101213.69;;;31.67;37.57
63901;BME280;50538;53.482;10.294;2022-07-29T15:35:59;101220.81;;;30.68;38.90
63901;BME280;50538;53.482;10.294;2022-07-29T15:45:59;101211.13;;;30.07;39.21
63901;BME280;50538;53.482;10.294;2022-07-29T15:56:29;101210.34;;;29.47;42.59
63901;BME280;50538;53.482;10.294;2022-07-29T16:06:29;101198.75;;;28.91;43.55
63901;BME280;50538;53.482;10.294;2022-07-29T16:16:31;101198.78;;;28.50;44.44
63901;BME280;50538;53.482;10.294;2022-07-29T16:26:32;101195.97;;;29.76;41.36
63901;BME280;50538;53.482;10.294;2022-07-29T16:36:33;101187.09;;;30.96;40.03
63901;BME280;50538;53.482;10.294;2022-07-29T16:46:33;101179.09;;;31.23;38.32
63901;BME280;50538;53.482;10.294;2022-07-29T16:56:36;101163.50;;;32.50;36.54
63901;BME280;50538;53.482;10.294;2022-07-29T17:06:38;101172.50;;;31.67;37.70
63901;BME280;50538;53.482;10.294;2022-07-29T17:16:39;101166.47;;;31.89;36.08
63901;BME280;50538;53.482;10.294;2022-07-29T17:26:39;101157.28;;;32.12;37.09
63901;BME280;50538;53.482;10.294;2022-07-29T17:36:42;101171.84;;;33.19;34.59
63901;BME280;50538;53.482;10.294;2022-07-29T17:46:42;101166.69;;;32.58;35.11
63901;BME280;50538;53.482;10.294;2022-07-29T17:56:44;101177.53;;;30.65;38.87
63901;BME280;50538;53.482;10.294;2022-07-29T18:06:44;101175.53;;;28.99;41.71
63901;BME280;50538;53.482;10.294;2022-07-29T18:16:45;101159.94;;;27.77;44.35
63901;BME280;50538;53.482;10.294;2022-07-29T18:26:45;101166.53;;;26.77;46.72
63901;BME280;50538;53.482;10.294;2022-07-29T18:36:45;101160.06;;;25.87;48.55
63901;BME280;50538;53.482;10.294;2022-07-29T18:46:46;101170.97;;;25.21;50.37
63901;BME280;50538;53.482;10.294;2022-07-29T18:56:46;101170.81;;;24.56;52.18
63901;BME280;50538;53.482;10.294;2022-07-29T19:06:47;101177.16;;;23.99;53.54
63901;BME280;50538;53.482;10.294;2022-07-29T19:16:48;101190.91;;;23.53;55.61
63901;BME280;50538;53.482;10.294;2022-07-29T19:26:49;101201.34;;;23.09;56.41
63901;BME280;50538;53.482;10.294;2022-07-29T19:36:49;101208.47;;;22.68;58.53
63901;BME280;50538;53.482;10.294;2022-07-29T19:46:49;101214.91;;;22.32;60.26
63901;BME280;50538;53.482;10.294;2022-07-29T19:56:50;101218.81;;;21.95;61.97
63901;BME280;50538;53.482;10.294;2022-07-29T20:06:50;101218.13;;;21.63;63.83
63901;BME280;50538;53.482;10.294;2022-07-29T20:16:53;101217.84;;;21.34;65.12
63901;BME280;50538;53.482;10.294;2022-07-29T20:26:53;101205.47;;;21.08;64.75
63901;BME280;50538;53.482;10.294;2022-07-29T20:36:53;101204.22;;;20.86;66.76
63901;BME280;50538;53.482;10.294;2022-07-29T20:46:54;101219.09;;;20.70;67.66
63901;BME280;50538;53.482;10.294;2022-07-29T20:56:54;101221.28;;;20.55;68.12
63901;BME280;50538;53.482;10.294;2022-07-29T21:06:54;101225.50;;;20.44;67.93
63901;BME280;50538;53.482;10.294;2022-07-29T21:16:55;101220.59;;;20.35;67.34
63901;BME280;50538;53.482;10.294;2022-07-29T21:26:55;101223.34;;;20.28;67.95
63901;BME280;50538;53.482;10.294;2022-07-29T21:37:16;101217.59;;;20.18;69.13
63901;BME280;50538;53.482;10.294;2022-07-29T21:47:16;101222.63;;;20.08;69.07
63901;BME280;50538;53.482;10.294;2022-07-29T21:57:16;101214.38;;;19.96;68.94
63901;BME280;50538;53.482;10.294;2022-07-29T22:07:17;101208.63;;;19.86;69.21
63901;BME280;50538;53.482;10.294;2022-07-29T22:17:17;101222.56;;;19.76;69.89
63901;BME280;50538;53.482;10.294;2022-07-29T22:27:18;101214.53;;;19.70;68.65
63901;BME280;50538;53.482;10.294;2022-07-29T22:37:19;101212.06;;;19.62;69.70
63901;BME280;50538;53.482;10.294;2022-07-29T22:47:19;101204.44;;;19.52;68.74
63901;BME280;50538;53.482;10.294;2022-07-29T22:57:19;101203.44;;;19.40;69.11
63901;BME280;50538;53.482;10.294;2022-07-29T23:07:20;101198.91;;;19.27;70.36
63901;BME280;50538;53.482;10.294;2022-07-29T23:17:21;101196.25;;;19.14;70.60
63901;BME280;50538;53.482;10.294;2022-07-29T23:27:21;101203.53;;;19.00;70.59
63901;BME280;50538;53.482;10.294;2022-07-29T23:37:22;101205.59;;;18.92;70.58
63901;BME280;50538;53.482;10.294;2022-07-29T23:47:22;101196.72;;;18.84;70.57
63901;BME280;50538;53.482;10.294;2022-07-29T23:57:22;101195.69;;;18.79;70.43
